createdAt,value
2024-01-01T00:00:10.068Z,147.63
2024-01-01T00:02:45.263Z,162.57
2024-01-01T00:05:16.828Z,160.73
2024-01-01T00:07:52.690Z,124.70
2024-01-01T00:10:24.471Z,144.60
2024-01-01T00:12:59.110Z,127.50
2024-01-01T00:15:34.848Z,118.07
2024-01-01T00:18:11.956Z,130.38
2024-01-01T00:20:46.493Z,136.02
2024-01-01T00:23:18.488Z,120.25
2024-01-01T00:25:51.577Z,109.32
2024-01-01T00:28:22.659Z,152.02
2024-01-01T00:30:54.074Z,120.63
2024-01-01T00:33:28.572Z,113.97
2024-01-01T00:36:02.716Z,112.78
2024-01-01T00:38:35.082Z,124.53
2024-01-01T00:41:08.309Z,106.10
2024-01-01T00:43:42.166Z,86.80
2024-01-01T00:46:16.763Z,99.03
2024-01-01T00:48:52.902Z,91.28
2024-01-01T00:51:24.969Z,63.10
2024-01-01T00:53:57.639Z,68.78
2024-01-01T00:56:28.957Z,51.80
2024-01-01T00:59:00.620Z,52.13
2024-01-01T01:01:37.150Z,57.75
2024-01-01T01:04:11.471Z,51.40
2024-01-01T01:06:45.394Z,40.28
2024-01-01T01:09:16.141Z,40.10
2024-01-01T01:11:52.001Z,48.08
2024-01-01T01:14:24.984Z,43.17
2024-01-01T01:16:57.346Z,53.65
2024-01-01T01:19:30.479Z,53.95
2024-01-01T01:22:06.464Z,47.63
2024-01-01T01:24:38.434Z,52.45
2024-01-01T01:27:11.332Z,44.45
2024-01-01T01:29:46.798Z,41.30
2024-01-01T01:32:20.998Z,44.17
2024-01-01T01:34:58.305Z,33.03
2024-01-01T01:37:56.025Z,29.85
2024-01-01T01:40:27.278Z,40.53
2024-01-01T01:43:00.031Z,24.85
2024-01-01T01:45:34.996Z,20.10
2024-01-01T01:48:07.198Z,23.27
2024-01-01T01:50:42.276Z,15.02
2024-01-01T01:53:15.588Z,24.70
2024-01-01T01:55:49.344Z,37.72
2024-01-01T01:58:23.745Z,39.30
2024-01-01T02:00:57.476Z,18.05
2024-01-01T02:03:30.649Z,35.07
2024-01-01T02:06:06.826Z,25.67
2024-01-01T02:08:42.590Z,37.50
2024-01-01T02:11:15.155Z,28.95
2024-01-01T02:13:48.828Z,14.60
2024-01-01T02:16:20.109Z,16.95
2024-01-01T02:18:52.801Z,20.17
2024-01-01T02:21:30.168Z,61.05
2024-01-01T02:24:04.979Z,31.25
2024-01-01T02:26:39.532Z,51.40
2024-01-01T02:29:11.714Z,18.05
2024-01-01T02:31:51.897Z,12.35
2024-01-01T02:34:24.282Z,11.95
2024-01-01T02:36:57.889Z,20.27
2024-01-01T02:39:33.128Z,40.90
2024-01-01T02:42:07.568Z,11.13
2024-01-01T02:44:41.445Z,70.40
2024-01-01T02:47:15.099Z,23.13
2024-01-01T02:49:48.170Z,12.82
2024-01-01T02:52:24.322Z,8.77
2024-01-01T02:54:59.304Z,13.30
2024-01-01T02:57:32.332Z,21.45
2024-01-01T03:00:06.454Z,8.32
2024-01-01T03:02:40.903Z,15.10
2024-01-01T03:05:14.132Z,13.25
2024-01-01T03:07:50.871Z,8.98
2024-01-01T03:10:28.274Z,7.03
2024-01-01T03:13:05.022Z,6.10
2024-01-01T03:15:38.754Z,8.93
2024-01-01T03:18:14.005Z,10.95
2024-01-01T03:20:46.579Z,17.00
2024-01-01T03:23:21.948Z,4.60
2024-01-01T03:26:01.664Z,7.57
2024-01-01T03:28:34.295Z,8.45
2024-01-01T03:31:09.045Z,7.97
2024-01-01T03:33:45.297Z,6.68
2024-01-01T03:36:20.906Z,8.82
2024-01-01T03:38:57.739Z,5.45
2024-01-01T03:41:32.959Z,13.45
2024-01-01T03:44:09.437Z,9.82
2024-01-01T03:46:42.490Z,7.32
2024-01-01T03:49:18.249Z,5.50
2024-01-01T03:51:52.871Z,5.13
2024-01-01T03:54:24.359Z,7.00
2024-01-01T03:57:00.194Z,4.60
2024-01-01T03:59:33.008Z,5.40
2024-01-01T04:02:05.690Z,7.25
2024-01-01T04:04:37.917Z,6.05
2024-01-01T04:07:11.516Z,9.80
2024-01-01T04:09:46.159Z,8.05
2024-01-01T04:12:21.271Z,6.00
2024-01-01T04:14:54.053Z,9.48
2024-01-01T04:17:29.744Z,5.78
2024-01-01T04:20:03.985Z,8.27
2024-01-01T04:22:38.090Z,6.60
2024-01-01T04:25:14.467Z,7.18
2024-01-01T04:27:48.199Z,8.18
2024-01-01T04:30:19.475Z,12.10
2024-01-01T04:32:52.630Z,5.55
2024-01-01T04:35:24.528Z,6.13
2024-01-01T04:38:02.474Z,6.50
2024-01-01T04:40:34.024Z,5.20
2024-01-01T04:43:12.310Z,6.28
2024-01-01T04:45:45.838Z,7.03
2024-01-01T04:48:20.406Z,6.75
2024-01-01T04:51:10.016Z,8.73
2024-01-01T04:53:41.452Z,5.40
2024-01-01T04:56:14.453Z,7.00
2024-01-01T04:58:49.718Z,8.20
2024-01-01T05:01:22.783Z,9.35
2024-01-01T05:03:56.075Z,7.30
2024-01-01T05:06:37.799Z,12.02
2024-01-01T05:09:10.847Z,11.45
2024-01-01T05:11:46.532Z,7.07
2024-01-01T05:14:22.638Z,8.32
2024-01-01T05:16:55.303Z,8.15
2024-01-01T05:19:32.262Z,7.18
2024-01-01T05:22:06.967Z,8.73
2024-01-01T05:24:39.625Z,5.57
2024-01-01T05:27:11.334Z,10.25
2024-01-01T05:29:48.211Z,6.57
2024-01-01T05:32:25.015Z,9.75
2024-01-01T05:34:57.338Z,14.30
2024-01-01T05:37:32.550Z,10.88
2024-01-01T05:40:06.600Z,5.97
2024-01-01T05:42:40.031Z,7.88
2024-01-01T05:45:15.292Z,8.05
2024-01-01T05:47:51.687Z,7.10
2024-01-01T05:50:28.931Z,5.93
2024-01-01T05:53:06.931Z,5.18
2024-01-01T05:55:43.277Z,6.25
2024-01-01T05:58:15.582Z,5.57
2024-01-01T06:00:51.812Z,6.28
2024-01-01T06:03:23.127Z,5.25
2024-01-01T06:05:58.418Z,5.80
2024-01-01T06:08:35.747Z,5.57
2024-01-01T06:11:11.456Z,5.10
2024-01-01T06:13:43.305Z,5.18
2024-01-01T06:16:20.107Z,6.40
2024-01-01T06:18:53.242Z,3.13
2024-01-01T06:21:29.642Z,5.45
2024-01-01T06:24:02.793Z,7.25
2024-01-01T06:26:35.051Z,4.45
2024-01-01T06:29:07.399Z,6.95
2024-01-01T06:31:42.497Z,10.85
2024-01-01T06:34:15.389Z,7.22
2024-01-01T06:36:48.486Z,7.35
2024-01-01T06:39:22.249Z,5.00
2024-01-01T06:41:56.107Z,5.05
2024-01-01T06:44:29.511Z,3.90
2024-01-01T06:47:07.596Z,3.70
2024-01-01T06:49:39.265Z,6.00
2024-01-01T06:52:14.199Z,5.82
2024-01-01T06:54:49.411Z,5.18
2024-01-01T06:57:23.721Z,2.83
2024-01-01T06:59:55.968Z,3.22
2024-01-01T07:02:33.106Z,4.15
2024-01-01T07:05:06.921Z,5.10
2024-01-01T07:07:42.036Z,3.20
2024-01-01T07:10:14.433Z,4.20
2024-01-01T07:12:46.442Z,7.72
2024-01-01T07:15:18.912Z,3.00
2024-01-01T07:17:53.671Z,5.70
2024-01-01T07:20:25.257Z,5.75
2024-01-01T07:22:58.952Z,4.43
2024-01-01T07:25:33.145Z,5.47
2024-01-01T07:28:06.358Z,7.30
2024-01-01T07:30:41.669Z,2.50
2024-01-01T07:33:22.614Z,2.55
2024-01-01T07:35:53.569Z,3.67
2024-01-01T07:38:26.293Z,3.60
2024-01-01T07:40:59.243Z,2.75
2024-01-01T07:43:32.008Z,5.95
2024-01-01T07:46:05.280Z,5.30
2024-01-01T07:48:39.817Z,3.22
2024-01-01T07:51:13.735Z,2.38
2024-01-01T07:53:47.103Z,2.78
2024-01-01T07:56:21.880Z,4.28
2024-01-01T07:58:53.484Z,4.80
2024-01-01T08:01:28.051Z,4.93
2024-01-01T08:04:03.003Z,4.30
2024-01-01T08:06:34.763Z,2.78
2024-01-01T08:09:07.829Z,3.72
2024-01-01T08:11:42.070Z,2.92
2024-01-01T08:14:17.529Z,1.73
2024-01-01T08:16:49.627Z,3.45
2024-01-01T08:19:24.125Z,7.53
2024-01-01T08:21:56.866Z,3.28
2024-01-01T08:24:31.610Z,3.42
2024-01-01T08:27:03.848Z,5.47
2024-01-01T08:29:38.062Z,9.38
2024-01-01T08:32:11.675Z,1.98
2024-01-01T08:34:49.633Z,11.48
2024-01-01T08:37:21.769Z,9.55
2024-01-01T08:39:54.474Z,11.65
2024-01-01T08:42:29.425Z,3.05
2024-01-01T08:45:05.067Z,3.08
2024-01-01T08:47:41.724Z,3.05
2024-01-01T08:50:17.135Z,3.15
2024-01-01T08:52:48.087Z,2.95
2024-01-01T08:55:20.916Z,2.72
2024-01-01T08:57:52.633Z,1.20
2024-01-01T09:00:26.315Z,2.75
2024-01-01T09:03:01.539Z,3.55
2024-01-01T09:05:36.046Z,4.35
2024-01-01T09:08:09.821Z,8.63
2024-01-01T09:10:44.403Z,3.28
2024-01-01T09:13:17.813Z,3.55
2024-01-01T09:15:52.281Z,4.65
2024-01-01T09:18:23.925Z,5.03
2024-01-01T09:21:00.625Z,3.15
2024-01-01T09:23:31.756Z,2.50
2024-01-01T09:26:03.012Z,4.25
2024-01-01T09:28:36.033Z,2.40
2024-01-01T09:31:07.585Z,1.87
2024-01-01T09:33:42.914Z,2.60
2024-01-01T09:36:17.558Z,3.20
2024-01-01T09:38:50.859Z,3.15
2024-01-01T09:41:23.210Z,2.70
2024-01-01T09:43:55.979Z,7.57
2024-01-01T09:46:35.645Z,4.03
2024-01-01T09:49:08.785Z,1.85
2024-01-01T09:51:47.645Z,3.03
2024-01-01T09:54:22.836Z,2.43
2024-01-01T09:56:54.395Z,1.60
2024-01-01T09:59:42.156Z,2.50
2024-01-01T10:02:17.574Z,3.33
2024-01-01T10:04:56.107Z,4.30
2024-01-01T10:07:35.616Z,3.78
2024-01-01T10:10:08.660Z,3.43
2024-01-01T10:12:47.961Z,10.63
2024-01-01T10:15:20.921Z,5.63
2024-01-01T10:17:57.250Z,2.37
2024-01-01T10:20:33.357Z,1.93
2024-01-01T10:23:32.683Z,6.00
2024-01-01T10:26:12.859Z,2.97
2024-01-01T10:28:52.069Z,7.60
2024-01-01T10:31:29.298Z,3.23
2024-01-01T10:34:05.224Z,4.28
2024-01-01T10:36:38.346Z,1.73
2024-01-01T10:39:13.404Z,5.60
2024-01-01T10:41:49.361Z,4.13
2024-01-01T10:44:22.297Z,2.40
2024-01-01T10:47:01.675Z,2.40
2024-01-01T10:49:38.510Z,3.77
2024-01-01T10:52:52.899Z,1.70
2024-01-01T10:55:57.593Z,2.13
2024-01-01T10:58:45.875Z,2.20
2024-01-01T11:01:21.456Z,2.20
2024-01-01T11:03:59.975Z,4.83
2024-01-01T11:06:42.266Z,4.30
2024-01-01T11:09:36.705Z,16.87
2024-01-01T11:12:15.907Z,8.30
2024-01-01T11:14:50.765Z,3.13
2024-01-01T11:17:34.483Z,2.43
2024-01-01T11:20:08.768Z,4.23
2024-01-01T11:22:45.596Z,2.20
2024-01-01T11:25:36.551Z,2.20
2024-01-01T11:28:10.555Z,1.50
2024-01-01T11:30:47.077Z,5.07
2024-01-01T11:33:22.367Z,2.87
2024-01-01T11:35:56.742Z,3.13
2024-01-01T11:38:35.680Z,1.93
2024-01-01T11:41:07.771Z,3.00
2024-01-01T11:43:42.438Z,2.57
2024-01-01T11:46:16.363Z,2.70
2024-01-01T11:48:57.296Z,3.13
2024-01-01T11:51:29.656Z,2.10
2024-01-01T11:54:14.174Z,3.50
2024-01-01T11:56:47.551Z,2.60
2024-01-01T11:59:24.069Z,2.57
2024-01-01T12:01:57.171Z,9.23
2024-01-01T12:04:31.201Z,3.63
2024-01-01T12:07:03.289Z,2.63
2024-01-01T12:09:35.557Z,2.70
2024-01-01T12:12:15.738Z,3.13
2024-01-01T12:14:50.205Z,6.77
2024-01-01T12:17:23.031Z,3.60
2024-01-01T12:19:54.613Z,8.10
2024-01-01T12:22:27.767Z,3.70
2024-01-01T12:25:03.225Z,8.63
2024-01-01T12:27:37.630Z,3.50
2024-01-01T12:30:12.525Z,3.20
2024-01-01T12:32:47.325Z,3.80
2024-01-01T12:35:20.419Z,6.47
2024-01-01T12:37:55.301Z,2.03
2024-01-01T12:40:30.843Z,3.90
2024-01-01T12:43:02.700Z,3.60
2024-01-01T12:45:38.787Z,4.33
2024-01-01T12:48:15.228Z,3.30
2024-01-01T12:50:49.661Z,1.83
2024-01-01T12:53:21.329Z,2.40
2024-01-01T12:55:53.559Z,6.73
2024-01-01T12:58:27.966Z,1.90
2024-01-01T13:01:02.703Z,2.87
2024-01-01T13:03:36.611Z,1.90
2024-01-01T13:06:10.241Z,2.30
2024-01-01T13:08:43.578Z,1.30
2024-01-01T13:11:17.506Z,4.50
2024-01-01T13:13:52.322Z,2.10
2024-01-01T13:16:28.390Z,9.30
2024-01-01T13:18:59.343Z,5.80
2024-01-01T13:21:31.640Z,5.67
2024-01-01T13:24:03.693Z,6.83
2024-01-01T13:26:37.385Z,2.70
2024-01-01T13:29:11.020Z,9.93
2024-01-01T13:31:48.984Z,2.60
2024-01-01T13:34:20.241Z,3.63
2024-01-01T13:36:51.971Z,7.13
2024-01-01T13:39:23.505Z,2.90
2024-01-01T13:41:56.527Z,4.13
2024-01-01T13:44:29.999Z,4.43
2024-01-01T13:47:04.289Z,5.63
2024-01-01T13:49:39.176Z,5.50
2024-01-01T13:52:12.223Z,2.90
2024-01-01T13:54:45.535Z,5.93
2024-01-01T13:57:19.191Z,2.90
2024-01-01T13:59:55.604Z,2.43
2024-01-01T14:02:28.399Z,3.93
2024-01-01T14:05:00.420Z,3.63
2024-01-01T14:07:31.365Z,2.50
2024-01-01T14:10:08.701Z,1.83
2024-01-01T14:12:40.371Z,9.63
2024-01-01T14:15:12.837Z,6.90
2024-01-01T14:17:45.871Z,8.13
2024-01-01T14:20:24.189Z,2.00
2024-01-01T14:22:58.028Z,3.80
2024-01-01T14:25:32.151Z,7.30
2024-01-01T14:28:03.251Z,10.17
2024-01-01T14:30:36.388Z,2.10
2024-01-01T14:33:11.656Z,3.83
2024-01-01T14:35:43.840Z,1.70
2024-01-01T14:38:15.635Z,2.50
2024-01-01T14:40:50.306Z,3.90
2024-01-01T14:43:21.442Z,2.40
2024-01-01T14:45:54.498Z,2.63
2024-01-01T14:48:29.408Z,2.43
2024-01-01T14:51:04.272Z,2.20
2024-01-01T14:53:36.851Z,1.30
2024-01-01T14:56:12.408Z,2.50
2024-01-01T14:58:46.494Z,3.73
2024-01-01T15:01:24.179Z,4.73
2024-01-01T15:03:58.969Z,1.00
2024-01-01T15:06:30.006Z,1.75
2024-01-01T15:09:03.989Z,1.93
2024-01-01T15:11:34.978Z,1.80
2024-01-01T15:14:07.644Z,1.17
2024-01-01T15:16:38.828Z,2.00
2024-01-01T15:19:13.963Z,2.70
2024-01-01T15:21:46.366Z,1.30
2024-01-01T15:24:21.245Z,5.43
2024-01-01T15:26:54.006Z,1.80
2024-01-01T15:29:30.328Z,1.23
2024-01-01T15:32:03.293Z,5.83
2024-01-01T15:34:41.143Z,1.57
2024-01-01T15:37:13.300Z,1.10
2024-01-01T15:39:47.268Z,2.30
2024-01-01T15:42:20.438Z,2.50
2024-01-01T15:44:52.433Z,1.70
2024-01-01T15:47:25.243Z,2.80
2024-01-01T15:50:09.158Z,1.10
2024-01-01T15:52:40.457Z,1.10
2024-01-01T15:55:12.815Z,1.20
2024-01-01T15:57:45.205Z,4.80
2024-01-01T16:00:18.009Z,1.50
2024-01-01T16:02:53.932Z,6.00
2024-01-01T16:05:28.203Z,1.10
2024-01-01T16:08:05.830Z,2.40
2024-01-01T16:10:37.437Z,3.17
2024-01-01T16:13:09.139Z,3.83
2024-01-01T16:15:48.380Z,1.43
2024-01-01T16:18:20.671Z,1.17
2024-01-01T16:21:00.434Z,0.90
2024-01-01T16:23:33.439Z,1.17
2024-01-01T16:26:06.103Z,7.80
2024-01-01T16:28:38.009Z,2.23
2024-01-01T16:31:10.120Z,2.03
2024-01-01T16:33:42.654Z,5.97
2024-01-01T16:36:20.031Z,3.70
2024-01-01T16:38:52.093Z,1.30
2024-01-01T16:41:27.105Z,1.83
2024-01-01T16:43:58.504Z,2.60
2024-01-01T16:46:37.425Z,3.07
2024-01-01T16:49:10.993Z,1.90
2024-01-01T16:51:50.577Z,0.87
2024-01-01T16:54:22.620Z,2.50
2024-01-01T16:56:53.635Z,3.43
2024-01-01T16:59:26.203Z,1.20
2024-01-01T17:02:03.263Z,2.17
2024-01-01T17:04:37.547Z,2.30
2024-01-01T17:07:10.726Z,13.90
2024-01-01T17:09:45.250Z,4.13
2024-01-01T17:12:21.108Z,2.60
2024-01-01T17:14:56.326Z,1.13
2024-01-01T17:17:30.343Z,3.77
2024-01-01T17:20:09.399Z,1.23
2024-01-01T17:22:44.487Z,4.30
2024-01-01T17:25:16.966Z,1.00
2024-01-01T17:27:49.714Z,4.20
2024-01-01T17:30:21.982Z,1.60
2024-01-01T17:32:54.298Z,1.10
2024-01-01T17:35:26.834Z,1.50
2024-01-01T17:38:04.248Z,2.47
2024-01-01T17:40:42.036Z,1.53
2024-01-01T17:43:13.590Z,2.65
2024-01-01T17:45:47.297Z,4.37
2024-01-01T17:48:22.044Z,1.27
2024-01-01T17:50:53.698Z,1.55
2024-01-01T17:53:30.966Z,4.53
2024-01-01T17:56:04.290Z,1.00
2024-01-01T17:58:39.455Z,0.80
2024-01-01T18:01:12.778Z,1.55
2024-01-01T18:03:44.522Z,2.30
2024-01-01T18:06:15.392Z,1.02
2024-01-01T18:08:48.312Z,2.35
2024-01-01T18:11:27.380Z,1.10
2024-01-01T18:14:01.288Z,8.68
2024-01-01T18:16:35.574Z,0.90
2024-01-01T18:19:07.481Z,1.75
2024-01-01T18:21:44.851Z,7.30
2024-01-01T18:24:20.451Z,1.30
2024-01-01T18:26:54.813Z,1.90
2024-01-01T18:29:28.712Z,1.20
2024-01-01T18:32:05.084Z,5.25
2024-01-01T18:34:41.421Z,1.00
2024-01-01T18:37:16.957Z,2.30
2024-01-01T18:39:51.161Z,1.75
2024-01-01T18:42:28.371Z,1.55
2024-01-01T18:45:05.165Z,0.80
2024-01-01T18:47:38.784Z,1.75
2024-01-01T18:50:15.986Z,3.33
2024-01-01T18:52:47.811Z,0.80
2024-01-01T18:55:25.705Z,5.68
2024-01-01T18:58:01.641Z,1.05
2024-01-01T19:00:34.859Z,3.80
2024-01-01T19:03:10.003Z,1.00
2024-01-01T19:05:48.335Z,1.23
2024-01-01T19:08:20.627Z,2.65
2024-01-01T19:10:55.049Z,2.83
2024-01-01T19:13:24.700Z,1.70
2024-01-01T19:15:56.354Z,2.33
2024-01-01T19:18:31.401Z,1.50
2024-01-01T19:21:06.421Z,0.90
2024-01-01T19:23:41.680Z,2.00
2024-01-01T19:26:20.602Z,1.35
2024-01-01T19:28:54.659Z,3.53
2024-01-01T19:31:26.854Z,1.15
2024-01-01T19:34:04.139Z,1.23
2024-01-01T19:36:40.435Z,3.97
2024-01-01T19:39:14.869Z,4.50
2024-01-01T19:41:50.523Z,1.43
2024-01-01T19:44:26.770Z,1.20
2024-01-01T19:46:58.515Z,2.15
2024-01-01T19:49:33.772Z,1.50
2024-01-01T19:52:07.726Z,0.90
2024-01-01T19:54:40.342Z,2.60
2024-01-01T19:57:20.531Z,1.13
2024-01-01T19:59:53.192Z,1.40
2024-01-01T20:02:26.826Z,2.15
2024-01-01T20:04:58.338Z,1.63
2024-01-01T20:07:30.933Z,5.15
2024-01-01T20:10:02.618Z,2.25
2024-01-01T20:12:35.683Z,1.50
2024-01-01T20:15:08.354Z,2.37
2024-01-01T20:17:53.918Z,2.30
2024-01-01T20:20:26.411Z,1.00
2024-01-01T20:22:59.019Z,1.20
2024-01-01T20:25:31.330Z,1.00
2024-01-01T20:28:07.742Z,1.48
2024-01-01T20:30:40.993Z,1.97
2024-01-01T20:33:15.073Z,0.80
2024-01-01T20:35:46.384Z,4.70
2024-01-01T20:38:28.270Z,1.83
2024-01-01T20:40:59.915Z,1.48
2024-01-01T20:43:34.270Z,1.77
2024-01-01T20:46:06.454Z,3.17
2024-01-01T20:48:41.657Z,1.00
2024-01-01T20:51:15.286Z,1.15
2024-01-01T20:53:52.629Z,2.05
2024-01-01T20:56:28.184Z,0.88
2024-01-01T20:59:06.467Z,1.27
2024-01-01T21:01:41.874Z,1.10
2024-01-01T21:04:15.589Z,0.95
2024-01-01T21:06:50.449Z,1.20
2024-01-01T21:09:27.161Z,1.55
2024-01-01T21:12:02.553Z,1.13
2024-01-01T21:14:46.664Z,1.10
2024-01-01T21:17:18.637Z,1.80
2024-01-01T21:19:54.011Z,2.38
2024-01-01T21:22:26.713Z,4.93
2024-01-01T21:25:02.790Z,1.83
2024-01-01T21:27:38.578Z,1.75
2024-01-01T21:30:15.383Z,1.35
2024-01-01T21:32:49.179Z,1.17
2024-01-01T21:35:27.475Z,1.00
2024-01-01T21:38:03.948Z,1.20
2024-01-01T21:40:37.174Z,1.55
2024-01-01T21:43:12.817Z,1.50
2024-01-01T21:45:48.213Z,1.55
2024-01-01T21:48:21.264Z,1.48
2024-01-01T21:50:53.399Z,1.30
2024-01-01T21:53:25.697Z,1.80
2024-01-01T21:55:58.077Z,0.80
2024-01-01T21:58:31.003Z,1.67
2024-01-01T22:01:06.159Z,0.95
2024-01-01T22:03:39.595Z,4.60
2024-01-01T22:06:15.556Z,2.15
2024-01-01T22:08:49.335Z,3.35
2024-01-01T22:11:26.340Z,0.90
2024-01-01T22:13:59.978Z,2.47
2024-01-01T22:16:33.229Z,1.30
2024-01-01T22:19:06.868Z,0.80
2024-01-01T22:21:40.633Z,0.98
2024-01-01T22:24:16.724Z,1.35
2024-01-01T22:26:54.105Z,1.27
2024-01-01T22:29:29.543Z,1.00
2024-01-01T22:32:05.312Z,1.75
2024-01-01T22:34:40.278Z,1.17
2024-01-01T22:37:13.943Z,0.95
2024-01-01T22:39:48.272Z,1.27
2024-01-01T22:42:22.153Z,0.95
2024-01-01T22:45:01.744Z,1.27
2024-01-01T22:47:39.757Z,1.67
2024-01-01T22:50:12.306Z,3.92
2024-01-01T22:52:46.626Z,1.60
2024-01-01T22:55:20.039Z,1.05
2024-01-01T22:57:55.794Z,1.70
2024-01-01T23:00:30.263Z,0.80
2024-01-01T23:03:18.730Z,1.13
2024-01-01T23:05:51.075Z,2.35
2024-01-01T23:08:25.806Z,1.00
2024-01-01T23:11:01.565Z,1.65
2024-01-01T23:13:39.126Z,0.85
2024-01-01T23:16:15.386Z,0.90
2024-01-01T23:18:52.388Z,5.40
2024-01-01T23:21:24.535Z,2.17
2024-01-01T23:23:57.306Z,1.13
2024-01-01T23:26:34.844Z,2.38
2024-01-01T23:29:08.884Z,0.90
2024-01-01T23:31:43.658Z,0.90
2024-01-01T23:34:17.768Z,1.00
2024-01-01T23:36:55.687Z,3.85
2024-01-01T23:39:34.758Z,3.40
2024-01-01T23:42:06.797Z,9.98
2024-01-01T23:44:40.297Z,1.73
2024-01-01T23:47:11.855Z,2.35
2024-01-01T23:49:52.565Z,1.15
2024-01-01T23:52:23.783Z,1.02
2024-01-01T23:54:56.520Z,2.45
2024-01-01T23:57:27.974Z,3.85
